createdAt,value
2023-04-15T00:01:49.995Z,100878.94
2023-04-15T00:04:16.586Z,100881.41
2023-04-15T00:06:43.079Z,100879.69
2023-04-15T00:09:09.552Z,100879.25
2023-04-15T00:11:35.991Z,100874.91
2023-04-15T00:14:02.395Z,100875.47
2023-04-15T00:16:28.945Z,100873.22
2023-04-15T00:18:55.501Z,100881.31
2023-04-15T00:21:22.082Z,100879.44
2023-04-15T00:23:52.486Z,100883.41
2023-04-15T00:26:19.625Z,100875.31
2023-04-15T00:28:47.241Z,100880.53
2023-04-15T00:31:14.195Z,100877.16
2023-04-15T00:33:40.686Z,100878.00
2023-04-15T00:36:07.311Z,100879.06
2023-04-15T00:38:33.780Z,100876.75
2023-04-15T00:41:00.262Z,100873.44
2023-04-15T00:43:27.672Z,100873.81
2023-04-15T00:45:55.876Z,100878.63
2023-04-15T00:48:22.995Z,100880.84
2023-04-15T00:50:49.457Z,100879.34
2023-04-15T00:53:15.902Z,100881.63
2023-04-15T00:55:42.531Z,100887.44
2023-04-15T00:58:08.933Z,100888.03
2023-04-15T01:00:35.869Z,100882.66
2023-04-15T01:03:03.209Z,100886.38
2023-04-15T01:05:31.131Z,100885.28
2023-04-15T01:07:57.995Z,100880.75
2023-04-15T01:10:24.383Z,100886.78
2023-04-15T01:12:51.273Z,100880.34
2023-04-15T01:15:17.859Z,100885.34
2023-04-15T01:17:44.668Z,100880.13
2023-04-15T01:20:12.054Z,100883.63
2023-04-15T01:22:39.432Z,100882.59
2023-04-15T01:25:15.790Z,100885.72
2023-04-15T01:27:42.532Z,100886.09
2023-04-15T01:30:10.520Z,100885.41
2023-04-15T01:32:38.065Z,100884.31
2023-04-15T01:35:04.909Z,100885.56
2023-04-15T01:37:32.278Z,100884.75
2023-04-15T01:39:58.650Z,100897.19
2023-04-15T01:42:25.181Z,100889.53
2023-04-15T01:44:52.053Z,100886.97
2023-04-15T01:47:18.526Z,100890.44
2023-04-15T01:49:44.938Z,100897.59
2023-04-15T01:52:11.373Z,100893.09
2023-04-15T01:54:40.045Z,100896.41
2023-04-15T01:57:06.524Z,100899.03
2023-04-15T01:59:33.075Z,100899.22
2023-04-15T02:02:00.382Z,100905.00
2023-04-15T02:04:27.925Z,100893.59
2023-04-15T02:06:54.415Z,100889.81
2023-04-15T02:09:21.525Z,100903.38
2023-04-15T02:11:48.096Z,100899.03
2023-04-15T02:14:14.507Z,100903.13
2023-04-15T02:16:41.235Z,100899.53
2023-04-15T02:19:08.075Z,100908.09
2023-04-15T02:21:37.293Z,100905.31
2023-04-15T02:24:04.203Z,100909.41
2023-04-15T02:26:32.592Z,100905.06
2023-04-15T02:28:59.797Z,100908.75
2023-04-15T02:31:26.642Z,100905.91
2023-04-15T02:33:53.060Z,100908.38
2023-04-15T02:36:21.021Z,100912.31
2023-04-15T02:38:47.456Z,100916.66
2023-04-15T02:41:15.528Z,100923.50
2023-04-15T02:43:44.002Z,100927.47
2023-04-15T02:46:14.655Z,100926.84
2023-04-15T02:48:41.686Z,100938.34
2023-04-15T02:51:16.867Z,100936.88
2023-04-15T02:53:43.358Z,100934.75
2023-04-15T02:56:09.995Z,100944.28
2023-04-15T02:58:36.561Z,100945.78
2023-04-15T03:01:03.200Z,100944.75
2023-04-15T03:03:29.809Z,100948.09
2023-04-15T03:05:56.481Z,100942.91
2023-04-15T03:08:23.831Z,100951.38
2023-04-15T03:10:52.304Z,100944.84
2023-04-15T03:13:19.372Z,100949.59
2023-04-15T03:15:49.221Z,100955.25
2023-04-15T03:18:15.710Z,100953.84
2023-04-15T03:20:42.525Z,100959.31
2023-04-15T03:23:09.428Z,100967.09
2023-04-15T03:25:37.355Z,100961.47
2023-04-15T03:28:06.009Z,100968.78
2023-04-15T03:30:33.125Z,100965.28
2023-04-15T03:32:59.782Z,100964.81
2023-04-15T03:35:26.263Z,100976.88
2023-04-15T03:37:52.652Z,100974.38
2023-04-15T03:40:19.048Z,100977.78
2023-04-15T03:42:45.442Z,100980.38
2023-04-15T03:45:11.913Z,100989.31
2023-04-15T03:47:38.391Z,100977.31
2023-04-15T03:50:05.351Z,100984.84
2023-04-15T03:52:31.746Z,100987.53
2023-04-15T03:54:58.262Z,100991.25
2023-04-15T03:57:24.626Z,100997.81
2023-04-15T03:59:51.186Z,100984.09
2023-04-15T04:02:17.883Z,100999.19
2023-04-15T04:04:44.444Z,101003.38
2023-04-15T04:07:20.256Z,101003.94
2023-04-15T04:09:47.434Z,101011.53
2023-04-15T04:12:14.095Z,101006.72
2023-04-15T04:14:40.753Z,101009.78
2023-04-15T04:17:07.277Z,101010.22
2023-04-15T04:19:34.243Z,101022.34
2023-04-15T04:22:00.972Z,101020.97
2023-04-15T04:24:27.334Z,101014.91
2023-04-15T04:26:53.798Z,101030.41
2023-04-15T04:29:20.178Z,101024.47
2023-04-15T04:31:48.575Z,101033.72
2023-04-15T04:34:15.925Z,101037.97
2023-04-15T04:36:42.394Z,101034.81
2023-04-15T04:39:08.925Z,101034.34
2023-04-15T04:41:35.332Z,101045.81
2023-04-15T04:44:01.819Z,101054.38
2023-04-15T04:46:28.504Z,101060.38
2023-04-15T04:49:20.565Z,101058.03
2023-04-15T04:51:48.462Z,101062.56
2023-04-15T04:54:14.890Z,101068.41
2023-04-15T04:56:41.475Z,101071.28
2023-04-15T04:59:07.975Z,101079.16
2023-04-15T05:01:34.428Z,101074.13
2023-04-15T05:04:01.345Z,101080.88
2023-04-15T05:06:30.439Z,101093.19
2023-04-15T05:08:56.892Z,101088.81
2023-04-15T05:11:23.367Z,101103.63
2023-04-15T05:13:49.801Z,101104.84
2023-04-15T05:16:16.716Z,101092.97
2023-04-15T05:18:43.155Z,101106.91
2023-04-15T05:21:09.570Z,101113.47
2023-04-15T05:23:36.070Z,101114.81
2023-04-15T05:26:02.468Z,101119.69
2023-04-15T05:28:28.835Z,101128.41
2023-04-15T05:30:55.490Z,101123.34
2023-04-15T05:33:21.894Z,101132.91
2023-04-15T05:35:48.293Z,101139.28
2023-04-15T05:38:14.846Z,101141.00
2023-04-15T05:40:41.323Z,101141.00
2023-04-15T05:43:07.780Z,101152.34
2023-04-15T05:45:34.192Z,101146.78
2023-04-15T05:48:00.657Z,101150.66
2023-04-15T05:50:27.116Z,101150.94
2023-04-15T05:52:53.549Z,101155.25
2023-04-15T05:55:20.423Z,101168.16
2023-04-15T05:57:47.017Z,101172.06
2023-04-15T06:00:14.412Z,101180.25
2023-04-15T06:02:41.668Z,101180.75
2023-04-15T06:05:11.841Z,101187.41
2023-04-15T06:07:39.036Z,101184.03
2023-04-15T06:10:06.168Z,101200.06
2023-04-15T06:12:32.867Z,101206.56
2023-04-15T06:15:00.275Z,101206.22
2023-04-15T06:17:26.938Z,101208.34
2023-04-15T06:19:56.460Z,101222.81
2023-04-15T06:22:23.891Z,101228.38
2023-04-15T06:24:51.503Z,101227.13
2023-04-15T06:27:18.045Z,101233.59
2023-04-15T06:29:44.756Z,101238.09
2023-04-15T06:32:11.858Z,101238.09
2023-04-15T06:34:38.319Z,101246.13
2023-04-15T06:37:06.311Z,101245.59
2023-04-15T06:39:33.037Z,101255.16
2023-04-15T06:41:59.478Z,101253.47
2023-04-15T06:44:26.132Z,101259.69
2023-04-15T06:46:52.699Z,101260.72
2023-04-15T06:49:19.100Z,101252.47
2023-04-15T06:51:45.632Z,101261.16
2023-04-15T06:54:12.062Z,101263.03
2023-04-15T06:56:38.542Z,101278.56
2023-04-15T06:59:04.905Z,101268.66
2023-04-15T07:01:31.399Z,101271.09
2023-04-15T07:03:57.938Z,101274.03
2023-04-15T07:06:24.691Z,101278.78
2023-04-15T07:08:51.188Z,101285.66
2023-04-15T07:11:17.578Z,101290.69
2023-04-15T07:13:44.008Z,101293.53
2023-04-15T07:16:10.503Z,101296.63
2023-04-15T07:18:37.237Z,101296.84
2023-04-15T07:21:03.842Z,101299.00
2023-04-15T07:23:30.264Z,101310.00
2023-04-15T07:25:57.351Z,101309.63
2023-04-15T07:28:23.769Z,101324.38
2023-04-15T07:30:50.337Z,101328.03
2023-04-15T07:33:16.818Z,101322.66
2023-04-15T07:35:43.466Z,101333.78
2023-04-15T07:38:09.859Z,101329.13
2023-04-15T07:40:36.302Z,101335.09
2023-04-15T07:43:03.393Z,101340.94
2023-04-15T07:45:29.979Z,101352.78
2023-04-15T07:47:56.714Z,101346.28
2023-04-15T07:50:24.059Z,101360.94
2023-04-15T07:52:51.442Z,101358.78
2023-04-15T07:55:20.029Z,101350.25
2023-04-15T07:57:47.427Z,101365.50
2023-04-15T08:00:14.868Z,101368.75
2023-04-15T08:02:42.712Z,101373.22
2023-04-15T08:05:10.661Z,101377.69
2023-04-15T08:07:38.313Z,101379.63
2023-04-15T08:10:05.220Z,101386.88
2023-04-15T08:12:32.003Z,101392.19
2023-04-15T08:14:58.739Z,101397.94
2023-04-15T08:17:25.462Z,101388.25
2023-04-15T08:19:52.138Z,101402.56
2023-04-15T08:22:19.631Z,101406.69
2023-04-15T08:24:47.222Z,101420.97
2023-04-15T08:27:13.822Z,101409.84
2023-04-15T08:29:40.696Z,101412.09
2023-04-15T08:32:07.575Z,101412.66
2023-04-15T08:34:34.765Z,101414.38
2023-04-15T08:37:01.203Z,101422.59
2023-04-15T08:39:28.247Z,101420.34
2023-04-15T08:42:02.561Z,101422.84
2023-04-15T08:44:31.480Z,101439.59
2023-04-15T08:47:02.861Z,101445.91
2023-04-15T08:49:30.485Z,101437.47
2023-04-15T08:51:59.288Z,101445.25
2023-04-15T08:54:27.130Z,101442.19
2023-04-15T08:56:53.880Z,101436.25
2023-04-15T08:59:22.153Z,101453.56
2023-04-15T09:01:51.069Z,101451.09
2023-04-15T09:04:18.226Z,101452.13
2023-04-15T09:06:44.892Z,101457.44
2023-04-15T09:09:14.288Z,101464.44
2023-04-15T09:11:41.312Z,101468.81
2023-04-15T09:14:08.176Z,101470.72
2023-04-15T09:17:00.710Z,101474.00
2023-04-15T09:19:27.844Z,101478.38
2023-04-15T09:21:58.959Z,101477.72
2023-04-15T09:24:34.205Z,101490.16
2023-04-15T09:27:01.086Z,101482.78
2023-04-15T09:29:27.864Z,101484.59
2023-04-15T09:31:54.252Z,101497.19
2023-04-15T09:34:21.406Z,101503.50
2023-04-15T09:36:49.768Z,101509.31
2023-04-15T09:39:17.360Z,101502.94
2023-04-15T09:41:44.520Z,101503.63
2023-04-15T09:44:27.017Z,101509.28
2023-04-15T09:46:53.582Z,101520.75
2023-04-15T09:49:20.798Z,101528.03
2023-04-15T09:51:57.907Z,101512.97
2023-04-15T09:54:38.659Z,101530.72
2023-04-15T09:57:10.049Z,101516.97
2023-04-15T09:59:36.732Z,101533.19
2023-04-15T10:02:06.549Z,101533.06
2023-04-15T10:04:39.735Z,101539.03
2023-04-15T10:07:07.304Z,101533.94
2023-04-15T10:09:36.319Z,101537.78
2023-04-15T10:12:05.864Z,101543.16
2023-04-15T10:14:38.660Z,101537.75
2023-04-15T10:17:06.025Z,101544.59
2023-04-15T10:19:36.416Z,101543.66
2023-04-15T10:22:03.797Z,101543.75
2023-04-15T10:24:32.847Z,101550.94
2023-04-15T10:27:00.535Z,101546.50
2023-04-15T10:29:27.668Z,101551.38
2023-04-15T10:31:58.911Z,101549.28
2023-04-15T10:34:26.845Z,101560.25
2023-04-15T10:36:58.258Z,101564.91
2023-04-15T10:39:51.154Z,101559.41
2023-04-15T10:42:19.563Z,101565.56
2023-04-15T10:44:54.180Z,101570.13
2023-04-15T10:47:22.028Z,101573.06
2023-04-15T10:49:51.026Z,101564.00
2023-04-15T10:52:22.772Z,101572.56
2023-04-15T10:54:49.186Z,101575.16
2023-04-15T10:57:22.680Z,101570.84
2023-04-15T11:00:01.873Z,101577.78
2023-04-15T11:02:43.664Z,101572.19
2023-04-15T11:05:14.638Z,101573.78
2023-04-15T11:07:46.914Z,101577.03
2023-04-15T11:10:13.367Z,101584.03
2023-04-15T11:12:41.806Z,101585.25
2023-04-15T11:15:29.514Z,101599.91
2023-04-15T11:18:08.750Z,101592.84
2023-04-15T11:20:35.944Z,101599.53
2023-04-15T11:23:08.379Z,101595.56
2023-04-15T11:25:43.018Z,101602.97
2023-04-15T11:28:10.908Z,101608.09
2023-04-15T11:30:38.474Z,101613.06
2023-04-15T11:33:06.942Z,101611.97
2023-04-15T11:35:33.471Z,101623.25
2023-04-15T11:38:06.069Z,101623.47
2023-04-15T11:40:33.460Z,101621.59
2023-04-15T11:43:11.414Z,101630.25
2023-04-15T11:45:48.159Z,101643.47
2023-04-15T11:48:14.918Z,101629.09
2023-04-15T11:50:41.573Z,101642.59
2023-04-15T11:53:10.434Z,101635.44
2023-04-15T11:55:43.449Z,101633.50
2023-04-15T11:58:23.250Z,101632.03
2023-04-15T12:01:00.573Z,101627.53
2023-04-15T12:03:33.040Z,101633.94
2023-04-15T12:06:22.022Z,101636.63
2023-04-15T12:09:06.818Z,101636.16
2023-04-15T12:11:40.550Z,101637.28
2023-04-15T12:14:08.360Z,101647.16
2023-04-15T12:16:48.180Z,101641.84
2023-04-15T12:19:18.563Z,101648.16
2023-04-15T12:21:48.059Z,101654.69
2023-04-15T12:24:14.646Z,101656.97
2023-04-15T12:27:05.535Z,101655.16
2023-04-15T12:29:33.294Z,101658.50
2023-04-15T12:32:09.335Z,101668.22
2023-04-15T12:34:38.652Z,101673.25
2023-04-15T12:37:07.887Z,101675.28
2023-04-15T12:39:39.658Z,101674.69
2023-04-15T12:42:08.264Z,101677.47
2023-04-15T12:44:36.256Z,101694.34
2023-04-15T12:47:03.127Z,101691.06
2023-04-15T12:49:30.661Z,101685.25
2023-04-15T12:51:59.992Z,101693.22
2023-04-15T12:54:27.111Z,101692.75
2023-04-15T12:56:54.588Z,101694.22
2023-04-15T12:59:21.783Z,101694.31
2023-04-15T13:01:48.831Z,101703.44
2023-04-15T13:04:17.024Z,101696.56
2023-04-15T13:06:43.855Z,101696.13
2023-04-15T13:09:10.700Z,101706.03
2023-04-15T13:11:37.420Z,101696.94
2023-04-15T13:14:07.136Z,101702.34
2023-04-15T13:16:34.528Z,101709.34
2023-04-15T13:19:01.881Z,101716.56
2023-04-15T13:21:28.593Z,101719.31
2023-04-15T13:23:55.619Z,101722.41
2023-04-15T13:26:22.112Z,101723.78
2023-04-15T13:28:48.525Z,101732.56
2023-04-15T13:31:15.045Z,101736.19
2023-04-15T13:33:41.574Z,101739.00
2023-04-15T13:36:08.402Z,101741.75
2023-04-15T13:38:34.892Z,101758.31
2023-04-15T13:41:01.469Z,101754.88
2023-04-15T13:43:28.250Z,101768.03
2023-04-15T13:45:55.267Z,101754.81
2023-04-15T13:48:21.737Z,101766.66
2023-04-15T13:50:48.114Z,101772.25
2023-04-15T13:53:14.550Z,101780.31
2023-04-15T13:55:42.666Z,101783.75
2023-04-15T13:58:10.014Z,101781.50
2023-04-15T14:00:36.636Z,101802.09
2023-04-15T14:03:03.367Z,101796.63
2023-04-15T14:05:29.968Z,101798.16
2023-04-15T14:07:56.405Z,101790.94
2023-04-15T14:10:22.862Z,101791.66
2023-04-15T14:12:49.288Z,101813.03
2023-04-15T14:15:15.924Z,101805.06
2023-04-15T14:17:42.689Z,101806.28
2023-04-15T14:20:09.822Z,101810.16
2023-04-15T14:22:36.343Z,101809.13
2023-04-15T14:25:02.817Z,101817.03
2023-04-15T14:27:29.386Z,101821.97
2023-04-15T14:29:57.630Z,101815.78
2023-04-15T14:32:26.159Z,101822.63
2023-04-15T14:34:52.690Z,101810.66
2023-04-15T14:37:19.221Z,101824.19
2023-04-15T14:39:45.608Z,101823.25
2023-04-15T14:42:11.982Z,101828.16
2023-04-15T14:44:38.360Z,101815.88
2023-04-15T14:47:05.913Z,101817.75
2023-04-15T14:49:32.402Z,101825.50
2023-04-15T14:51:58.864Z,101838.91
2023-04-15T14:54:25.342Z,101843.47
2023-04-15T14:56:51.717Z,101839.75
2023-04-15T14:59:18.152Z,101843.22
2023-04-15T15:01:44.822Z,101842.66
2023-04-15T15:04:11.683Z,101841.44
2023-04-15T15:06:38.680Z,101844.31
2023-04-15T15:09:05.323Z,101850.84
2023-04-15T15:11:31.967Z,101847.66
2023-04-15T15:13:58.403Z,101848.09
2023-04-15T15:16:25.129Z,101847.03
2023-04-15T15:18:51.607Z,101857.06
2023-04-15T15:21:18.464Z,101866.13
2023-04-15T15:23:45.917Z,101872.50
2023-04-15T15:26:12.573Z,101875.25
2023-04-15T15:28:39.011Z,101882.06
2023-04-15T15:31:05.879Z,101890.72
2023-04-15T15:33:32.769Z,101895.66
2023-04-15T15:35:59.196Z,101893.84
2023-04-15T15:38:26.194Z,101905.94
2023-04-15T15:40:52.727Z,101899.00
2023-04-15T15:43:19.167Z,101895.47
2023-04-15T15:45:45.704Z,101902.13
2023-04-15T15:48:12.264Z,101900.59
2023-04-15T15:50:38.856Z,101891.56
2023-04-15T15:53:05.363Z,101900.34
2023-04-15T15:55:31.852Z,101906.09
2023-04-15T15:57:58.254Z,101913.47
2023-04-15T16:00:24.734Z,101915.22
2023-04-15T16:03:05.273Z,101902.31
2023-04-15T16:05:33.558Z,101915.50
2023-04-15T16:08:00.051Z,101922.44
2023-04-15T16:10:26.533Z,101922.63
2023-04-15T16:12:52.964Z,101933.72
2023-04-15T16:15:19.592Z,101939.31
2023-04-15T16:17:46.035Z,101925.56
2023-04-15T16:20:13.675Z,101937.56
2023-04-15T16:22:40.213Z,101943.88
2023-04-15T16:25:07.150Z,101945.81
2023-04-15T16:27:34.962Z,101952.53
2023-04-15T16:30:01.868Z,101956.78
2023-04-15T16:32:28.282Z,101958.84
2023-04-15T16:34:55.417Z,101956.16
2023-04-15T16:37:21.909Z,101960.41
2023-04-15T16:39:48.328Z,101965.97
2023-04-15T16:42:14.751Z,101963.69
2023-04-15T16:44:41.154Z,101969.13
2023-04-15T16:47:09.706Z,101970.44
2023-04-15T16:49:36.112Z,101963.38
2023-04-15T16:52:02.586Z,101966.75
2023-04-15T16:54:29.741Z,101977.03
2023-04-15T16:56:58.453Z,101974.31
2023-04-15T16:59:25.754Z,101984.47
2023-04-15T17:01:52.335Z,101975.84
2023-04-15T17:04:19.052Z,101984.66
2023-04-15T17:06:45.979Z,101988.38
2023-04-15T17:09:12.376Z,102000.03
2023-04-15T17:11:40.503Z,101990.09
2023-04-15T17:14:07.636Z,101988.75
2023-04-15T17:16:34.013Z,102003.75
2023-04-15T17:19:00.477Z,101999.22
2023-04-15T17:21:27.362Z,102005.97
2023-04-15T17:23:53.864Z,102005.66
2023-04-15T17:26:20.256Z,102011.03
2023-04-15T17:28:46.690Z,102012.19
2023-04-15T17:31:13.290Z,102015.38
2023-04-15T17:34:00.244Z,102018.44
2023-04-15T17:36:27.254Z,102014.56
2023-04-15T17:38:56.561Z,102015.41
2023-04-15T17:41:23.763Z,102009.19
2023-04-15T17:43:50.525Z,102020.44
2023-04-15T17:46:17.083Z,102021.78
2023-04-15T17:48:43.573Z,102024.16
2023-04-15T17:51:10.164Z,102024.84
2023-04-15T17:53:36.565Z,102039.66
2023-04-15T17:56:03.007Z,102032.75
2023-04-15T17:58:30.012Z,102050.44
2023-04-15T18:00:56.616Z,102050.06
2023-04-15T18:03:23.288Z,102042.34
2023-04-15T18:05:49.818Z,102037.63
2023-04-15T18:08:16.297Z,102043.53
2023-04-15T18:10:42.736Z,102031.59
2023-04-15T18:13:09.160Z,102030.38
2023-04-15T18:15:35.874Z,102043.38
2023-04-15T18:18:02.652Z,102044.88
2023-04-15T18:20:29.252Z,102046.53
2023-04-15T18:22:55.793Z,102058.53
2023-04-15T18:25:22.223Z,102052.94
2023-04-15T18:27:48.977Z,102060.00
2023-04-15T18:30:15.424Z,102055.97
2023-04-15T18:32:41.992Z,102058.84
2023-04-15T18:35:08.903Z,102070.63
2023-04-15T18:37:35.696Z,102071.41
2023-04-15T18:40:02.204Z,102070.69
2023-04-15T18:42:28.751Z,102073.22
2023-04-15T18:44:55.271Z,102081.81
2023-04-15T18:47:21.966Z,102088.88
2023-04-15T18:49:48.387Z,102096.94
2023-04-15T18:52:14.864Z,102096.63
2023-04-15T18:54:41.260Z,102092.25
2023-04-15T18:57:07.767Z,102104.19
2023-04-15T18:59:34.682Z,102102.47
2023-04-15T19:02:02.130Z,102106.16
2023-04-15T19:04:29.397Z,102110.00
2023-04-15T19:06:56.039Z,102112.28
2023-04-15T19:09:22.579Z,102112.09
2023-04-15T19:11:48.969Z,102111.09
2023-04-15T19:14:15.399Z,102117.84
2023-04-15T19:16:41.868Z,102116.53
2023-04-15T19:19:08.337Z,102117.91
2023-04-15T19:21:34.846Z,102120.97
2023-04-15T19:24:01.455Z,102117.41
2023-04-15T19:26:28.021Z,102114.75
2023-04-15T19:28:54.836Z,102119.84
2023-04-15T19:31:21.326Z,102130.47
2023-04-15T19:33:47.755Z,102130.97
2023-04-15T19:36:14.391Z,102122.34
2023-04-15T19:38:40.931Z,102126.69
2023-04-15T19:41:09.638Z,102131.88
2023-04-15T19:43:36.533Z,102129.28
2023-04-15T19:46:04.121Z,102138.78
2023-04-15T19:48:30.609Z,102132.56
2023-04-15T19:50:57.333Z,102136.75
2023-04-15T19:53:25.576Z,102130.34
2023-04-15T19:55:52.141Z,102140.09
2023-04-15T19:58:18.617Z,102153.22
2023-04-15T20:00:44.999Z,102144.13
2023-04-15T20:03:11.718Z,102141.47
2023-04-15T20:05:38.279Z,102142.28
2023-04-15T20:08:04.905Z,102144.13
2023-04-15T20:10:31.999Z,102142.66
2023-04-15T20:12:58.551Z,102138.06
2023-04-15T20:15:25.018Z,102141.59
2023-04-15T20:17:51.626Z,102142.63
2023-04-15T20:20:18.562Z,102138.06
2023-04-15T20:22:45.307Z,102139.59
2023-04-15T20:25:11.843Z,102139.50
2023-04-15T20:27:38.364Z,102143.47
2023-04-15T20:30:05.911Z,102144.69
2023-04-15T20:32:35.250Z,102141.00
2023-04-15T20:35:03.315Z,102148.44
2023-04-15T20:37:30.809Z,102138.63
2023-04-15T20:39:57.463Z,102137.47
2023-04-15T20:42:23.950Z,102145.06
2023-04-15T20:44:50.412Z,102142.84
2023-04-15T20:47:17.057Z,102140.34
2023-04-15T20:49:43.736Z,102154.63
2023-04-15T20:52:10.642Z,102148.72
2023-04-15T20:54:37.050Z,102143.75
2023-04-15T20:57:03.618Z,102146.28
2023-04-15T20:59:30.423Z,102148.50
2023-04-15T21:01:57.490Z,102149.72
2023-04-15T21:04:24.443Z,102145.72
2023-04-15T21:06:52.033Z,102145.50
2023-04-15T21:09:18.876Z,102151.03
2023-04-15T21:12:00.464Z,102151.22
2023-04-15T21:14:28.292Z,102146.03
2023-04-15T21:16:54.800Z,102162.13
2023-04-15T21:19:21.306Z,102148.81
2023-04-15T21:21:47.678Z,102149.69
2023-04-15T21:24:14.109Z,102156.75
2023-04-15T21:26:40.656Z,102162.44
2023-04-15T21:29:09.473Z,102164.81
2023-04-15T21:31:37.809Z,102168.69
2023-04-15T21:34:04.236Z,102167.50
2023-04-15T21:36:31.581Z,102172.03
2023-04-15T21:38:58.007Z,102166.78
2023-04-15T21:41:24.463Z,102170.00
2023-04-15T21:43:50.992Z,102165.81
2023-04-15T21:46:22.892Z,102168.13
2023-04-15T21:48:52.410Z,102171.56
2023-04-15T21:51:18.829Z,102163.84
2023-04-15T21:53:45.273Z,102169.72
2023-04-15T21:56:11.984Z,102169.72
2023-04-15T21:58:38.468Z,102172.88
2023-04-15T22:01:05.121Z,102176.25
2023-04-15T22:03:33.901Z,102177.94
2023-04-15T22:06:02.201Z,102180.94
2023-04-15T22:08:28.831Z,102188.22
2023-04-15T22:10:55.443Z,102183.63
2023-04-15T22:13:21.910Z,102188.13
2023-04-15T22:15:48.356Z,102183.78
2023-04-15T22:18:14.836Z,102190.63
2023-04-15T22:20:41.377Z,102192.53
2023-04-15T22:23:08.924Z,102189.56
2023-04-15T22:25:38.384Z,102188.38
2023-04-15T22:28:08.153Z,102189.38
2023-04-15T22:30:42.067Z,102201.63
2023-04-15T22:33:09.643Z,102202.72
2023-04-15T22:35:37.140Z,102194.28
2023-04-15T22:38:04.665Z,102201.50
2023-04-15T22:40:31.151Z,102198.28
2023-04-15T22:42:57.585Z,102208.72
2023-04-15T22:45:24.056Z,102203.78
2023-04-15T22:47:50.587Z,102216.72
2023-04-15T22:50:17.062Z,102216.88
2023-04-15T22:52:46.088Z,102212.88
2023-04-15T22:55:12.855Z,102216.41
2023-04-15T22:57:39.318Z,102219.25
2023-04-15T23:00:07.211Z,102226.06
2023-04-15T23:02:34.761Z,102230.78
2023-04-15T23:05:03.484Z,102237.84
2023-04-15T23:07:38.498Z,102241.63
2023-04-15T23:10:05.399Z,102245.31
2023-04-15T23:12:31.792Z,102245.38
2023-04-15T23:14:58.181Z,102245.53
2023-04-15T23:17:24.636Z,102233.56
2023-04-15T23:19:51.461Z,102245.00
2023-04-15T23:22:18.371Z,102249.66
2023-04-15T23:24:44.744Z,102250.38
2023-04-15T23:27:11.223Z,102249.00
2023-04-15T23:29:37.721Z,102258.28
2023-04-15T23:32:04.323Z,102251.75
2023-04-15T23:34:30.813Z,102258.81
2023-04-15T23:36:57.188Z,102255.88
2023-04-15T23:39:23.624Z,102258.44
2023-04-15T23:41:50.497Z,102252.59
2023-04-15T23:44:16.966Z,102265.13
2023-04-15T23:46:43.420Z,102257.28
2023-04-15T23:49:10.068Z,102256.50
2023-04-15T23:51:36.674Z,102265.75
2023-04-15T23:54:03.155Z,102261.88
2023-04-15T23:56:29.520Z,102261.28
2023-04-15T23:58:55.911Z,102257.59
